Weather at Wittman Regional Airport

Public forecast

Using degrees Fahrenheit for public forecast. Weather courtesy of forecast.io.

Current aviation weather report (METAR) for Wittman Regional Airport

Retrieved 2021/09/19 18:53 UTC (28 minutes ago):

KOSH 191853Z 19011KT 10SM CLR 29/19 A3003 RMK AO2 SLP158 T02940189

Aviation forecast (TAF) for Wittman Regional Airport

Forecast is more than 12 hours old.

Retrieved 2021/08/04 18:24 UTC (2 months ago):

TAF KOSH 041722Z 0418/0518 VRB04KT P6SM SCT060 FM050200 18005KT P6SM SCT070 FM051200 22005KT P6SM FEW250